Terminal Aerodrome Forecast
Issued by NWS Tallahassee, FL

Home | Current Version | Previous Version | Text Only | Print | Product List | Glossary On
Versions: 1 2 3 4 5 6 7 8 9 10 11 12 13 14 15
000
FTUS42 KTAE 010500
TAFTLH
TAF
KTLH 010520Z 0106/0206 06006KT 6SM -DZ BR OVC004
     FM011600 08005KT P6SM BKN007 OVC015
     FM011900 06004KT P6SM BKN015
     FM020300 00000KT 4SM BR OVC007=

USA.gov is the U.S. government's official web portal to all federal, state and local government web resources and services.